NCAR-RAP Real-Time Weather Data

Output produced by METARs form (19 June 2019  10:39 UTC)
found at http://weather.rap.ucar.edu/surface/
 
KGEG 190953Z 22016KT 10SM SCT100 BKN200 13/03 A2988 RMK AO2 PK WND 20026/0915 SLP104 T01330033
KGEG 190853Z 21014KT 10SM FEW060 SCT100 BKN200 14/04 A2989 RMK AO2 SLP107 T01390044 56005
KGEG 190753Z 21013KT 10SM FEW060 SCT100 BKN200 15/06 A2989 RMK AO2 SLP108 T01500056 402890144
KGEG 190653Z 21013KT 10SM FEW060 FEW100 17/06 A2989 RMK AO2 SLP107 T01670061
KGEG 190553Z 22015KT 10SM FEW060 FEW100 19/06 A2990 RMK AO2 SLP112 T01890061 10283 20189 58003
KGEG 190453Z 21014KT 10SM FEW060 FEW120 FEW200 21/04 A2991 RMK AO2 SLP113 T02110039
KGEG 190353Z 22012KT 10SM FEW080 FEW120 FEW220 23/03 A2991 RMK AO2 SLP114 T02330033
KGEG 190253Z 22012KT 10SM FEW085 FEW140 FEW220 26/04 A2991 RMK AO2 SLP115 T02560044 58010
KGEG 190153Z 23015KT 10SM FEW085 FEW120 27/04 A2993 RMK AO2 SLP119 T02670044
KGEG 190053Z 25016KT 10SM FEW085 FEW100 FEW250 27/05 A2993 RMK AO2 SLP122 T02720050
KGEG 182353Z 23016G23KT 10SM FEW070 FEW100 BKN250 28/06 A2995 RMK AO2 SLP126 T02780056 10289 20233 58011
KGEG 182253Z 27014G22KT 10SM FEW070 BKN250 28/04 A2996 RMK AO2 SLP127 T02830039
KGEG 182153Z 27017G33KT 10SM SCT070 SCT250 28/03 A2997 RMK AO2 PK WND 23033/2145 SLP131 T02830033
KGEG 182053Z 27010G18KT 10SM SCT070 SCT250 27/04 A2998 RMK AO2 PK WND 24026/2010 SLP136 T02670044 58005
KGEG 181953Z VRB04KT 10SM BKN070 BKN250 26/06 A2998 RMK AO2 SLP136 T02560061
KGEG 181853Z 22009G15KT 10SM SCT060 BKN250 25/08 A3000 RMK AO2 SLP142 T02500078
KGEG 181753Z VRB05KT 10SM FEW050 BKN250 23/07 A3000 RMK AO2 SLP141 T02280072 10239 20144 50004
KGEG 181653Z 23010KT 10SM FEW050 FEW250 21/09 A3000 RMK AO2 SLP143 T02110089